sensor_id;sensor_type;location;lat;lon;timestamp;P1;durP1;ratioP1;P2;durP2;ratioP2
63296;SDS011;49419;51.716;-4.948;2023-05-10T00:02:22;13.00;;;11.80;;
63296;SDS011;49419;51.716;-4.948;2023-05-10T00:04:58;12.68;;;11.40;;
63296;SDS011;49419;51.716;-4.948;2023-05-10T00:07:26;12.80;;;11.70;;
63296;SDS011;49419;51.716;-4.948;2023-05-10T00:09:56;4.15;;;1.80;;
63296;SDS011;49419;51.716;-4.948;2023-05-10T00:12:27;7.82;;;1.67;;
63296;SDS011;49419;51.716;-4.948;2023-05-10T00:14:55;3.08;;;1.35;;
63296;SDS011;49419;51.716;-4.948;2023-05-10T00:21:17;5.30;;;1.35;;
63296;SDS011;49419;51.716;-4.948;2023-05-10T00:23:50;4.38;;;1.48;;
63296;SDS011;49419;51.716;-4.948;2023-05-10T00:26:15;5.32;;;1.88;;
63296;SDS011;49419;51.716;-4.948;2023-05-10T00:28:41;5.40;;;1.25;;
63296;SDS011;49419;51.716;-4.948;2023-05-10T00:31:09;8.15;;;1.60;;
63296;SDS011;49419;51.716;-4.948;2023-05-10T00:36:15;5.13;;;1.60;;
63296;SDS011;49419;51.716;-4.948;2023-05-10T00:41:59;6.93;;;2.17;;
63296;SDS011;49419;51.716;-4.948;2023-05-10T00:44:25;7.82;;;1.55;;
63296;SDS011;49419;51.716;-4.948;2023-05-10T00:47:01;6.22;;;1.95;;
63296;SDS011;49419;51.716;-4.948;2023-05-10T00:49:38;6.80;;;1.90;;
63296;SDS011;49419;51.716;-4.948;2023-05-10T00:55:43;9.23;;;3.15;;
63296;SDS011;49419;51.716;-4.948;2023-05-10T00:58:08;7.40;;;3.30;;
63296;SDS011;49419;51.716;-4.948;2023-05-10T01:00:38;6.73;;;2.53;;
63296;SDS011;49419;51.716;-4.948;2023-05-10T01:03:27;10.15;;;3.10;;
63296;SDS011;49419;51.716;-4.948;2023-05-10T01:09:26;8.20;;;3.85;;
63296;SDS011;49419;51.716;-4.948;2023-05-10T01:11:53;10.07;;;4.22;;
63296;SDS011;49419;51.716;-4.948;2023-05-10T01:14:20;12.55;;;4.38;;
63296;SDS011;49419;51.716;-4.948;2023-05-10T01:16:52;11.13;;;4.53;;
63296;SDS011;49419;51.716;-4.948;2023-05-10T01:19:50;10.13;;;4.00;;
63296;SDS011;49419;51.716;-4.948;2023-05-10T01:28:28;10.25;;;4.32;;
63296;SDS011;49419;51.716;-4.948;2023-05-10T01:34:13;8.30;;;1.70;;
63296;SDS011;49419;51.716;-4.948;2023-05-10T01:43:07;9.05;;;1.90;;
63296;SDS011;49419;51.716;-4.948;2023-05-10T01:49:26;7.00;;;1.55;;
63296;SDS011;49419;51.716;-4.948;2023-05-10T01:52:29;8.57;;;1.98;;
63296;SDS011;49419;51.716;-4.948;2023-05-10T01:55:05;6.20;;;1.88;;
63296;SDS011;49419;51.716;-4.948;2023-05-10T01:57:40;10.70;;;2.42;;
63296;SDS011;49419;51.716;-4.948;2023-05-10T02:00:30;5.70;;;1.83;;
63296;SDS011;49419;51.716;-4.948;2023-05-10T02:03:10;8.00;;;2.08;;
63296;SDS011;49419;51.716;-4.948;2023-05-10T02:05:38;8.93;;;1.75;;
63296;SDS011;49419;51.716;-4.948;2023-05-10T02:08:34;7.95;;;2.00;;
63296;SDS011;49419;51.716;-4.948;2023-05-10T02:11:02;8.07;;;1.92;;
63296;SDS011;49419;51.716;-4.948;2023-05-10T02:16:49;4.90;;;1.50;;
63296;SDS011;49419;51.716;-4.948;2023-05-10T02:19:26;7.60;;;1.77;;
63296;SDS011;49419;51.716;-4.948;2023-05-10T02:25:03;7.72;;;1.67;;
63296;SDS011;49419;51.716;-4.948;2023-05-10T02:27:49;11.80;;;2.67;;
63296;SDS011;49419;51.716;-4.948;2023-05-10T02:30:38;7.13;;;1.85;;
63296;SDS011;49419;51.716;-4.948;2023-05-10T02:36:27;4.88;;;1.52;;
63296;SDS011;49419;51.716;-4.948;2023-05-10T02:42:37;8.52;;;1.83;;
63296;SDS011;49419;51.716;-4.948;2023-05-10T02:48:02;7.25;;;1.75;;
63296;SDS011;49419;51.716;-4.948;2023-05-10T02:50:28;9.85;;;2.35;;
63296;SDS011;49419;51.716;-4.948;2023-05-10T02:53:22;9.18;;;2.03;;
63296;SDS011;49419;51.716;-4.948;2023-05-10T02:59:12;6.68;;;1.48;;
63296;SDS011;49419;51.716;-4.948;2023-05-10T03:02:05;8.23;;;2.13;;
63296;SDS011;49419;51.716;-4.948;2023-05-10T03:05:04;17.13;;;15.40;;
63296;SDS011;49419;51.716;-4.948;2023-05-10T03:07:48;16.95;;;15.60;;
63296;SDS011;49419;51.716;-4.948;2023-05-10T03:16:33;20.00;;;18.38;;
63296;SDS011;49419;51.716;-4.948;2023-05-10T03:22:25;20.67;;;18.60;;
63296;SDS011;49419;51.716;-4.948;2023-05-10T03:28:10;19.23;;;17.52;;
63296;SDS011;49419;51.716;-4.948;2023-05-10T03:31:18;18.25;;;16.75;;
63296;SDS011;49419;51.716;-4.948;2023-05-10T03:33:52;19.17;;;17.15;;
63296;SDS011;49419;51.716;-4.948;2023-05-10T03:36:43;18.25;;;16.75;;
63296;SDS011;49419;51.716;-4.948;2023-05-10T03:39:28;17.83;;;16.33;;
63296;SDS011;49419;51.716;-4.948;2023-05-10T03:42:13;18.27;;;16.67;;
63296;SDS011;49419;51.716;-4.948;2023-05-10T03:44:55;18.40;;;16.77;;
63296;SDS011;49419;51.716;-4.948;2023-05-10T03:47:44;18.13;;;16.63;;
63296;SDS011;49419;51.716;-4.948;2023-05-10T03:53:15;17.92;;;16.40;;
63296;SDS011;49419;51.716;-4.948;2023-05-10T03:55:44;18.65;;;17.17;;
63296;SDS011;49419;51.716;-4.948;2023-05-10T03:58:15;18.40;;;16.90;;
63296;SDS011;49419;51.716;-4.948;2023-05-10T04:00:52;18.80;;;17.10;;
63296;SDS011;49419;51.716;-4.948;2023-05-10T04:03:17;17.90;;;16.40;;
63296;SDS011;49419;51.716;-4.948;2023-05-10T04:06:02;17.42;;;16.23;;
63296;SDS011;49419;51.716;-4.948;2023-05-10T04:08:27;17.70;;;16.40;;
63296;SDS011;49419;51.716;-4.948;2023-05-10T04:11:04;18.30;;;16.70;;
63296;SDS011;49419;51.716;-4.948;2023-05-10T04:14:14;18.63;;;17.20;;
63296;SDS011;49419;51.716;-4.948;2023-05-10T04:16:50;18.43;;;16.97;;
63296;SDS011;49419;51.716;-4.948;2023-05-10T04:23:03;17.40;;;16.10;;
63296;SDS011;49419;51.716;-4.948;2023-05-10T04:28:38;17.30;;;15.82;;
63296;SDS011;49419;51.716;-4.948;2023-05-10T04:31:26;17.05;;;15.65;;
63296;SDS011;49419;51.716;-4.948;2023-05-10T04:36:53;16.45;;;14.95;;
63296;SDS011;49419;51.716;-4.948;2023-05-10T04:39:19;16.15;;;14.70;;
63296;SDS011;49419;51.716;-4.948;2023-05-10T04:44:40;16.30;;;14.80;;
63296;SDS011;49419;51.716;-4.948;2023-05-10T04:47:37;16.65;;;15.32;;
63296;SDS011;49419;51.716;-4.948;2023-05-10T04:50:21;16.63;;;15.32;;
63296;SDS011;49419;51.716;-4.948;2023-05-10T04:58:36;17.52;;;15.93;;
63296;SDS011;49419;51.716;-4.948;2023-05-10T05:04:34;17.75;;;15.60;;
63296;SDS011;49419;51.716;-4.948;2023-05-10T05:07:30;17.00;;;15.25;;
63296;SDS011;49419;51.716;-4.948;2023-05-10T05:10:17;16.30;;;14.95;;
63296;SDS011;49419;51.716;-4.948;2023-05-10T05:12:45;17.48;;;15.80;;
63296;SDS011;49419;51.716;-4.948;2023-05-10T05:15:12;18.02;;;16.33;;
63296;SDS011;49419;51.716;-4.948;2023-05-10T05:17:41;18.33;;;16.45;;
63296;SDS011;49419;51.716;-4.948;2023-05-10T05:20:08;17.00;;;15.68;;
63296;SDS011;49419;51.716;-4.948;2023-05-10T05:25:52;16.92;;;15.32;;
63296;SDS011;49419;51.716;-4.948;2023-05-10T05:28:40;17.13;;;15.32;;
63296;SDS011;49419;51.716;-4.948;2023-05-10T05:34:30;17.58;;;15.88;;
63296;SDS011;49419;51.716;-4.948;2023-05-10T05:37:03;18.80;;;16.48;;
63296;SDS011;49419;51.716;-4.948;2023-05-10T05:39:59;18.27;;;16.27;;
63296;SDS011;49419;51.716;-4.948;2023-05-10T05:46:06;18.65;;;16.85;;
63296;SDS011;49419;51.716;-4.948;2023-05-10T05:48:41;17.38;;;15.65;;
63296;SDS011;49419;51.716;-4.948;2023-05-10T05:51:52;19.63;;;17.48;;
63296;SDS011;49419;51.716;-4.948;2023-05-10T05:54:18;17.63;;;16.02;;
63296;SDS011;49419;51.716;-4.948;2023-05-10T05:57:01;17.23;;;15.65;;
63296;SDS011;49419;51.716;-4.948;2023-05-10T05:59:47;18.85;;;15.68;;
63296;SDS011;49419;51.716;-4.948;2023-05-10T06:02:20;18.77;;;15.95;;
63296;SDS011;49419;51.716;-4.948;2023-05-10T06:05:17;16.83;;;15.10;;
63296;SDS011;49419;51.716;-4.948;2023-05-10T06:07:42;19.55;;;16.00;;
63296;SDS011;49419;51.716;-4.948;2023-05-10T06:10:30;17.58;;;15.85;;
63296;SDS011;49419;51.716;-4.948;2023-05-10T06:13:43;18.00;;;16.35;;
63296;SDS011;49419;51.716;-4.948;2023-05-10T06:16:28;18.83;;;16.88;;
63296;SDS011;49419;51.716;-4.948;2023-05-10T06:18:53;18.60;;;16.70;;
63296;SDS011;49419;51.716;-4.948;2023-05-10T06:21:40;18.17;;;15.30;;
63296;SDS011;49419;51.716;-4.948;2023-05-10T06:24:05;9.65;;;2.17;;
63296;SDS011;49419;51.716;-4.948;2023-05-10T06:26:33;10.40;;;2.17;;
63296;SDS011;49419;51.716;-4.948;2023-05-10T06:29:28;9.27;;;2.42;;
63296;SDS011;49419;51.716;-4.948;2023-05-10T06:38:11;9.13;;;2.35;;
63296;SDS011;49419;51.716;-4.948;2023-05-10T06:40:46;8.77;;;2.22;;
63296;SDS011;49419;51.716;-4.948;2023-05-10T06:43:29;13.18;;;2.88;;
63296;SDS011;49419;51.716;-4.948;2023-05-10T06:58:24;10.48;;;1.92;;
63296;SDS011;49419;51.716;-4.948;2023-05-10T07:01:33;10.25;;;2.75;;
63296;SDS011;49419;51.716;-4.948;2023-05-10T07:04:30;9.60;;;2.80;;
63296;SDS011;49419;51.716;-4.948;2023-05-10T07:07:33;8.23;;;2.58;;
63296;SDS011;49419;51.716;-4.948;2023-05-10T07:10:09;10.82;;;2.83;;
63296;SDS011;49419;51.716;-4.948;2023-05-10T08:11:49;4.32;;;2.70;;
63296;SDS011;49419;51.716;-4.948;2023-05-10T17:08:38;7.07;;;2.47;;
63296;SDS011;49419;51.716;-4.948;2023-05-10T17:55:57;5.68;;;2.50;;
63296;SDS011;49419;51.716;-4.948;2023-05-10T19:27:11;12.13;;;5.55;;
63296;SDS011;49419;51.716;-4.948;2023-05-10T19:29:56;11.32;;;5.80;;
63296;SDS011;49419;51.716;-4.948;2023-05-10T19:33:13;11.10;;;6.47;;
63296;SDS011;49419;51.716;-4.948;2023-05-10T19:36:01;8.25;;;5.55;;
63296;SDS011;49419;51.716;-4.948;2023-05-10T19:38:50;10.43;;;6.30;;
63296;SDS011;49419;51.716;-4.948;2023-05-10T19:48:59;11.25;;;6.05;;
63296;SDS011;49419;51.716;-4.948;2023-05-10T19:55:01;7.90;;;5.90;;
63296;SDS011;49419;51.716;-4.948;2023-05-10T20:01:35;12.18;;;6.90;;
63296;SDS011;49419;51.716;-4.948;2023-05-10T20:04:15;9.93;;;6.63;;
63296;SDS011;49419;51.716;-4.948;2023-05-10T20:09:40;10.82;;;6.93;;
63296;SDS011;49419;51.716;-4.948;2023-05-10T20:12:14;12.20;;;7.07;;
63296;SDS011;49419;51.716;-4.948;2023-05-10T20:28:47;8.98;;;7.35;;
63296;SDS011;49419;51.716;-4.948;2023-05-10T20:40:11;8.93;;;7.40;;
63296;SDS011;49419;51.716;-4.948;2023-05-10T20:43:39;7.97;;;7.10;;
63296;SDS011;49419;51.716;-4.948;2023-05-10T20:52:42;8.68;;;7.82;;
63296;SDS011;49419;51.716;-4.948;2023-05-10T20:56:00;9.27;;;8.30;;
63296;SDS011;49419;51.716;-4.948;2023-05-10T20:58:26;9.52;;;8.55;;
63296;SDS011;49419;51.716;-4.948;2023-05-10T21:07:59;10.20;;;8.23;;
63296;SDS011;49419;51.716;-4.948;2023-05-10T21:10:25;9.75;;;8.75;;
63296;SDS011;49419;51.716;-4.948;2023-05-10T21:16:44;9.85;;;9.02;;
63296;SDS011;49419;51.716;-4.948;2023-05-10T21:23:04;9.27;;;8.48;;
63296;SDS011;49419;51.716;-4.948;2023-05-10T21:25:34;9.00;;;8.30;;
63296;SDS011;49419;51.716;-4.948;2023-05-10T21:29:05;8.93;;;8.10;;
63296;SDS011;49419;51.716;-4.948;2023-05-10T21:31:33;9.30;;;8.60;;
63296;SDS011;49419;51.716;-4.948;2023-05-10T21:33:58;9.25;;;8.57;;
63296;SDS011;49419;51.716;-4.948;2023-05-10T21:36:24;9.60;;;8.90;;
63296;SDS011;49419;51.716;-4.948;2023-05-10T21:39:09;9.75;;;8.90;;
63296;SDS011;49419;51.716;-4.948;2023-05-10T21:41:35;9.50;;;8.80;;
63296;SDS011;49419;51.716;-4.948;2023-05-10T21:44:01;9.50;;;8.70;;
63296;SDS011;49419;51.716;-4.948;2023-05-10T21:46:42;9.63;;;8.82;;
63296;SDS011;49419;51.716;-4.948;2023-05-10T21:49:10;9.85;;;9.05;;
63296;SDS011;49419;51.716;-4.948;2023-05-10T21:51:36;9.95;;;9.05;;
63296;SDS011;49419;51.716;-4.948;2023-05-10T21:54:17;9.50;;;8.77;;
63296;SDS011;49419;51.716;-4.948;2023-05-10T21:56:44;9.57;;;8.77;;
63296;SDS011;49419;51.716;-4.948;2023-05-10T21:59:09;9.20;;;8.55;;
63296;SDS011;49419;51.716;-4.948;2023-05-10T22:04:22;8.73;;;8.13;;
63296;SDS011;49419;51.716;-4.948;2023-05-10T22:06:48;8.77;;;8.18;;
63296;SDS011;49419;51.716;-4.948;2023-05-10T22:09:31;9.07;;;8.48;;
63296;SDS011;49419;51.716;-4.948;2023-05-10T22:11:57;9.20;;;8.40;;
63296;SDS011;49419;51.716;-4.948;2023-05-10T22:14:24;8.85;;;8.20;;
63296;SDS011;49419;51.716;-4.948;2023-05-10T22:17:08;8.93;;;8.23;;
63296;SDS011;49419;51.716;-4.948;2023-05-10T22:19:34;8.60;;;8.10;;
63296;SDS011;49419;51.716;-4.948;2023-05-10T22:21:59;8.80;;;8.20;;
63296;SDS011;49419;51.716;-4.948;2023-05-10T22:24:25;8.63;;;8.13;;
63296;SDS011;49419;51.716;-4.948;2023-05-10T22:27:09;8.68;;;8.10;;
63296;SDS011;49419;51.716;-4.948;2023-05-10T22:29:34;9.07;;;8.38;;
63296;SDS011;49419;51.716;-4.948;2023-05-10T22:32:01;9.30;;;8.55;;
63296;SDS011;49419;51.716;-4.948;2023-05-10T22:34:48;8.65;;;8.05;;
63296;SDS011;49419;51.716;-4.948;2023-05-10T22:37:13;8.80;;;8.15;;
63296;SDS011;49419;51.716;-4.948;2023-05-10T22:39:56;8.55;;;8.02;;
63296;SDS011;49419;51.716;-4.948;2023-05-10T22:45:33;8.93;;;8.27;;
63296;SDS011;49419;51.716;-4.948;2023-05-10T22:48:19;8.98;;;8.38;;
63296;SDS011;49419;51.716;-4.948;2023-05-10T22:50:46;8.05;;;7.53;;
63296;SDS011;49419;51.716;-4.948;2023-05-10T22:53:11;8.27;;;7.68;;
63296;SDS011;49419;51.716;-4.948;2023-05-10T22:55:40;8.20;;;7.60;;
63296;SDS011;49419;51.716;-4.948;2023-05-10T22:58:30;8.20;;;7.50;;
63296;SDS011;49419;51.716;-4.948;2023-05-10T23:00:56;7.85;;;7.35;;
63296;SDS011;49419;51.716;-4.948;2023-05-10T23:03:27;8.30;;;7.63;;
63296;SDS011;49419;51.716;-4.948;2023-05-10T23:05:55;8.30;;;7.70;;
63296;SDS011;49419;51.716;-4.948;2023-05-10T23:08:23;8.15;;;7.55;;
63296;SDS011;49419;51.716;-4.948;2023-05-10T23:10:51;8.35;;;7.75;;
63296;SDS011;49419;51.716;-4.948;2023-05-10T23:13:36;8.13;;;7.63;;
63296;SDS011;49419;51.716;-4.948;2023-05-10T23:16:16;8.38;;;7.88;;
63296;SDS011;49419;51.716;-4.948;2023-05-10T23:18:42;8.23;;;7.63;;
63296;SDS011;49419;51.716;-4.948;2023-05-10T23:21:08;7.70;;;7.20;;
63296;SDS011;49419;51.716;-4.948;2023-05-10T23:23:33;8.15;;;7.65;;
63296;SDS011;49419;51.716;-4.948;2023-05-10T23:25:59;7.85;;;7.43;;
63296;SDS011;49419;51.716;-4.948;2023-05-10T23:28:27;7.80;;;7.30;;
63296;SDS011;49419;51.716;-4.948;2023-05-10T23:31:00;8.10;;;7.50;;
63296;SDS011;49419;51.716;-4.948;2023-05-10T23:33:32;8.25;;;7.70;;
63296;SDS011;49419;51.716;-4.948;2023-05-10T23:35:58;7.80;;;7.20;;
63296;SDS011;49419;51.716;-4.948;2023-05-10T23:38:47;7.63;;;7.18;;
63296;SDS011;49419;51.716;-4.948;2023-05-10T23:41:11;7.80;;;7.32;;
63296;SDS011;49419;51.716;-4.948;2023-05-10T23:43:37;7.97;;;7.47;;
63296;SDS011;49419;51.716;-4.948;2023-05-10T23:46:14;7.95;;;7.55;;
63296;SDS011;49419;51.716;-4.948;2023-05-10T23:48:42;8.10;;;7.60;;
63296;SDS011;49419;51.716;-4.948;2023-05-10T23:53:36;8.20;;;7.80;;
63296;SDS011;49419;51.716;-4.948;2023-05-10T23:56:01;7.95;;;7.47;;
63296;SDS011;49419;51.716;-4.948;2023-05-10T23:59:07;8.30;;;7.80;;
